createdAt,value
2022-08-04T04:39:01.174Z,84.03
2022-08-04T04:41:54.675Z,83.92
2022-08-04T05:03:01.739Z,84.39
2022-08-04T05:06:08.348Z,83.97
2022-08-04T05:09:12.931Z,84.99
2022-08-04T05:11:43.832Z,85.12
2022-08-04T05:14:41.480Z,85.23
2022-08-04T05:17:30.275Z,84.96
2022-08-04T05:20:27.478Z,84.89
2022-08-04T05:23:13.299Z,84.77
2022-08-04T05:25:59.437Z,83.43
2022-08-04T05:28:34.405Z,83.71
2022-08-04T05:31:08.957Z,84.05
2022-08-04T05:33:51.564Z,83.95
2022-08-04T05:36:41.076Z,83.52
2022-08-04T05:39:17.291Z,83.67
2022-08-04T05:42:12.772Z,82.98
2022-08-04T05:44:46.337Z,84.16
2022-08-04T05:47:17.403Z,84.13
2022-08-04T05:49:45.645Z,83.72
2022-08-04T05:52:30.415Z,83.11
2022-08-04T05:55:00.443Z,83.91
2022-08-04T06:03:00.649Z,83.34
2022-08-04T06:05:33.399Z,83.48
2022-08-04T06:08:12.248Z,82.68
2022-08-04T06:25:53.919Z,81.16
2022-08-04T06:59:28.645Z,80.35
2022-08-04T07:12:57.316Z,79.88
2022-08-04T17:37:52.627Z,72.95
2022-08-04T17:40:25.271Z,73.88
2022-08-04T17:44:01.401Z,72.64
2022-08-04T17:46:28.858Z,75.05
2022-08-04T17:49:23.162Z,75.20
2022-08-04T17:52:15.399Z,73.39
2022-08-04T17:55:02.821Z,73.54
2022-08-04T17:57:31.132Z,75.03
2022-08-04T18:01:10.663Z,75.76
2022-08-04T18:04:38.144Z,75.98
2022-08-04T18:12:36.839Z,75.18
2022-08-04T18:15:22.956Z,72.76
2022-08-04T18:18:20.671Z,74.47
2022-08-04T18:20:47.198Z,75.53
2022-08-04T18:23:19.042Z,74.81
2022-08-04T18:32:04.515Z,75.04
2022-08-04T18:38:06.156Z,75.93
2022-08-04T18:43:16.885Z,75.96
2022-08-04T18:45:57.979Z,75.67
2022-08-04T18:48:37.335Z,75.11
2022-08-04T18:51:23.257Z,75.09
2022-08-04T18:53:58.937Z,75.36
2022-08-04T18:56:29.810Z,75.41
2022-08-04T18:59:01.647Z,75.35
2022-08-04T19:02:13.065Z,76.11
2022-08-04T19:04:33.076Z,76.23
2022-08-04T19:07:24.624Z,76.62
2022-08-04T19:09:53.745Z,77.09
2022-08-04T19:12:26.703Z,77.04
2022-08-04T19:15:08.864Z,77.20
2022-08-04T19:17:53.744Z,76.67
2022-08-04T19:20:31.107Z,76.88
2022-08-04T19:24:28.244Z,76.76
2022-08-04T19:25:59.060Z,76.61
2022-08-04T19:28:34.015Z,76.78
2022-08-04T19:31:05.496Z,76.65
2022-08-04T19:33:58.897Z,77.00
2022-08-04T19:36:35.018Z,76.78
2022-08-04T19:39:11.518Z,76.93
2022-08-04T19:42:04.806Z,77.17
2022-08-04T19:44:53.131Z,77.47
2022-08-04T19:50:19.278Z,77.67
2022-08-04T19:52:51.885Z,77.57
2022-08-04T19:58:29.034Z,77.77
2022-08-04T20:00:57.048Z,77.87
2022-08-04T20:04:09.086Z,78.06
2022-08-04T20:06:13.279Z,78.09
2022-08-04T20:08:47.944Z,77.80
2022-08-04T20:11:18.556Z,77.95
2022-08-04T20:18:06.986Z,78.21
2022-08-04T20:20:46.068Z,78.15
2022-08-04T20:23:47.943Z,78.53
2022-08-04T20:26:10.957Z,78.08
2022-08-04T20:28:45.835Z,78.42
2022-08-04T20:31:18.415Z,79.34
2022-08-04T20:33:54.923Z,78.69
2022-08-04T20:36:23.438Z,78.48
2022-08-04T20:38:53.215Z,78.50
2022-08-04T20:41:21.897Z,78.12
2022-08-04T20:43:49.689Z,77.64
2022-08-04T20:46:29.079Z,77.60
2022-08-04T20:49:23.115Z,78.35
2022-08-04T20:52:14.736Z,77.32
2022-08-04T20:54:56.221Z,77.25
2022-08-04T21:00:40.861Z,77.88
2022-08-04T21:03:59.904Z,77.97
2022-08-04T21:06:34.015Z,77.97
2022-08-04T21:09:00.929Z,78.34
2022-08-04T21:14:29.476Z,78.82
2022-08-04T21:16:58.537Z,78.69
2022-08-04T21:22:29.752Z,78.43
2022-08-04T21:28:20.070Z,79.36
2022-08-04T21:30:52.809Z,79.43
2022-08-04T21:33:24.461Z,80.50
2022-08-04T21:36:37.166Z,79.88
2022-08-04T21:39:05.705Z,79.77
2022-08-04T21:42:19.876Z,80.28
2022-08-04T21:44:38.033Z,79.74
2022-08-04T21:47:05.105Z,80.11
2022-08-04T21:49:56.341Z,79.64
2022-08-04T21:52:25.027Z,80.31
2022-08-04T21:54:54.102Z,80.22
2022-08-04T21:57:28.121Z,80.99
2022-08-04T22:00:00.965Z,80.55
2022-08-04T22:02:39.963Z,80.76
2022-08-04T22:05:34.888Z,80.91
2022-08-04T22:08:19.714Z,81.31
2022-08-04T22:10:47.050Z,80.56
2022-08-04T22:13:22.803Z,80.51
2022-08-04T22:16:04.471Z,80.75
2022-08-04T22:18:38.917Z,80.72
2022-08-04T22:21:09.629Z,81.01
2022-08-04T22:23:45.123Z,81.67
2022-08-04T22:26:20.078Z,81.05
2022-08-04T22:29:01.362Z,81.33
2022-08-04T22:31:53.123Z,80.94
2022-08-04T22:34:25.207Z,81.36
2022-08-04T22:36:53.732Z,81.84
2022-08-04T22:39:23.465Z,81.48
2022-08-04T22:42:04.186Z,81.20
2022-08-04T22:44:38.088Z,81.04
2022-08-04T22:47:10.190Z,80.94
2022-08-04T22:50:26.715Z,81.08
2022-08-04T22:52:55.177Z,81.23
2022-08-04T22:55:23.011Z,81.19
2022-08-04T23:01:12.434Z,81.67
2022-08-04T23:03:50.871Z,81.68
2022-08-04T23:06:25.497Z,81.60
2022-08-04T23:08:57.820Z,82.21
2022-08-04T23:11:35.255Z,82.01
2022-08-04T23:14:28.977Z,82.08
2022-08-04T23:16:56.949Z,82.21
2022-08-04T23:22:16.850Z,81.42
2022-08-04T23:25:05.462Z,81.47
2022-08-04T23:27:40.239Z,82.34
2022-08-04T23:30:09.417Z,81.91
2022-08-04T23:32:36.808Z,81.75
2022-08-04T23:38:30.563Z,81.56
2022-08-04T23:41:13.297Z,82.24
2022-08-04T23:43:54.915Z,82.37
2022-08-04T23:46:28.278Z,81.91
2022-08-04T23:48:57.041Z,82.08
2022-08-04T23:51:49.787Z,82.38
2022-08-04T23:54:16.839Z,82.62
2022-08-04T23:56:58.888Z,82.71
2022-08-04T23:59:51.694Z,82.36
